Time;durP1;ratioP1;P1;durP2;ratioP2;P2;SDS_P1;SDS_P2;PMS_P1;PMS_P2;Temp;Humidity;BMP_temperature;BMP_pressure;BME280_temperature;BME280_humidity;BME280_pressure;Samples;Min_cycle;Max_cycle;Signal;HPM_P1;HPM_P2
2022/06/27 00:00:13;;;;;;;;;;;26.20;56.60;;;;;;5043431;28;19920;-57
2022/06/27 00:02:38;;;;;;;;;;;26.20;56.60;;;;;;5015405;28;20024;-55
2022/06/27 00:05:04;;;;;;;;;;;26.20;56.60;;;;;;5023881;28;19917;-57
2022/06/27 00:07:29;;;;;;;;;;;26.20;56.60;;;;;;5031171;28;19962;-55
2022/06/27 00:09:55;;;;;;;;;;;26.20;56.60;;;;;;5043195;28;19914;-56
2022/06/27 00:12:20;;;;;;;;;;;26.20;56.60;;;;;;5037241;28;20040;-52
2022/06/27 00:14:46;;;;;;;;;;;26.20;56.60;;;;;;5023192;28;19919;-50
2022/06/27 00:17:11;;;;;;;;;;;26.20;56.60;;;;;;5026502;28;19921;-52
2022/06/27 00:19:37;;;;;;;;;;;26.20;56.60;;;;;;5042624;28;19913;-54
2022/06/27 00:22:04;;;;;;;;;;;26.20;56.60;;;;;;5042357;28;19995;-53
2022/06/27 00:24:29;;;;;;;;;;;26.10;56.70;;;;;;5042431;28;20002;-57
2022/06/27 00:26:55;;;;;;;;;;;26.10;56.60;;;;;;5043155;28;19975;-60
2022/06/27 00:29:20;;;;;;;;;;;26.10;56.50;;;;;;5023899;28;19921;-56
2022/06/27 00:31:46;;;;;;;;;;;26.10;56.60;;;;;;5022129;28;20494;-58
2022/06/27 00:34:11;;;;;;;;;;;26.10;56.60;;;;;;5040176;28;19921;-55
2022/06/27 00:36:37;;;;;;;;;;;26.20;56.70;;;;;;5024545;28;19917;-52
2022/06/27 00:39:02;;;;;;;;;;;26.10;56.60;;;;;;5026397;28;19935;-53
2022/06/27 00:41:28;;;;;;;;;;;26.10;56.60;;;;;;5028093;28;20137;-59
2022/06/27 00:43:53;;;;;;;;;;;26.10;56.60;;;;;;5042051;28;19917;-50
2022/06/27 00:46:19;;;;;;;;;;;26.10;56.70;;;;;;5043777;28;19968;-49
2022/06/27 00:48:44;;;;;;;;;;;26.10;56.70;;;;;;5042433;28;19913;-53
2022/06/27 00:51:09;;;;;;;;;;;26.10;56.70;;;;;;5042821;28;19913;-52
2022/06/27 00:53:35;;;;;;;;;;;26.20;56.80;;;;;;5024260;28;20490;-53
2022/06/27 00:56:00;;;;;;;;;;;26.10;56.70;;;;;;5024962;28;19920;-57
2022/06/27 00:58:26;;;;;;;;;;;26.10;56.70;;;;;;5034183;28;19933;-55
2022/06/27 01:00:51;;;;;;;;;;;26.10;56.70;;;;;;5022560;28;20374;-55
2022/06/27 01:03:17;;;;;;;;;;;26.10;56.80;;;;;;5028783;28;19921;-56
2022/06/27 01:05:51;;;;;;;;;;;26.10;56.80;;;;;;5042548;28;19913;-60
2022/06/27 01:08:19;;;;;;;;;;;26.10;56.80;;;;;;5035305;28;19924;-53
2022/06/27 01:10:45;;;;;;;;;;;26.10;56.80;;;;;;5021649;28;19913;-56
2022/06/27 01:13:11;;;;;;;;;;;26.10;56.80;;;;;;5026668;28;19932;-58
2022/06/27 01:15:36;;;;;;;;;;;26.10;56.80;;;;;;5042440;28;19920;-60
2022/06/27 01:18:02;;;;;;;;;;;26.10;56.80;;;;;;5021987;28;19913;-59
2022/06/27 01:20:27;;;;;;;;;;;26.10;56.80;;;;;;5004868;28;19983;-55
2022/06/27 01:22:53;;;;;;;;;;;26.10;56.80;;;;;;5003960;28;20302;-61
2022/06/27 01:25:18;;;;;;;;;;;26.10;56.80;;;;;;5042768;28;19923;-52
2022/06/27 01:27:44;;;;;;;;;;;26.10;56.80;;;;;;5023918;28;19919;-53
2022/06/27 01:30:09;;;;;;;;;;;26.10;56.80;;;;;;5023396;28;19913;-60
2022/06/27 01:32:36;;;;;;;;;;;26.00;56.60;;;;;;5021779;28;19913;-52
2022/06/27 01:35:02;;;;;;;;;;;26.00;56.80;;;;;;5038543;28;19913;-53
2022/06/27 01:37:28;;;;;;;;;;;26.00;56.80;;;;;;5041448;28;19917;-53
2022/06/27 01:39:54;;;;;;;;;;;26.10;56.80;;;;;;5026693;28;20008;-54
2022/06/27 01:42:20;;;;;;;;;;;26.10;56.90;;;;;;5022506;28;19920;-49
2022/06/27 01:44:45;;;;;;;;;;;26.10;56.90;;;;;;5035293;28;19917;-58
2022/06/27 01:47:11;;;;;;;;;;;26.10;56.90;;;;;;5042142;28;19924;-58
2022/06/27 01:49:37;;;;;;;;;;;26.10;56.90;;;;;;5030286;28;19913;-52
2022/06/27 01:52:03;;;;;;;;;;;26.10;56.90;;;;;;5021285;28;19913;-51
2022/06/27 01:54:28;;;;;;;;;;;26.00;56.90;;;;;;5031058;28;20465;-52
2022/06/27 01:56:53;;;;;;;;;;;26.00;56.90;;;;;;5049960;23;19967;-59
2022/06/27 01:59:20;;;;;;;;;;;26.00;56.90;;;;;;5042017;28;20437;-60
2022/06/27 02:01:45;;;;;;;;;;;26.00;57.00;;;;;;5041502;28;19917;-61
2022/06/27 02:04:12;;;;;;;;;;;26.00;57.00;;;;;;5018065;28;20230;-54
2022/06/27 02:06:37;;;;;;;;;;;26.00;57.00;;;;;;5021097;28;19913;-52
2022/06/27 02:09:03;;;;;;;;;;;26.00;57.00;;;;;;5025102;28;20298;-54
2022/06/27 02:11:29;;;;;;;;;;;26.00;57.10;;;;;;5041060;28;19999;-55
2022/06/27 02:13:55;;;;;;;;;;;26.00;57.10;;;;;;5038946;28;20712;-54
2022/06/27 02:16:21;;;;;;;;;;;26.00;57.00;;;;;;5022305;28;20337;-55
2022/06/27 02:18:46;;;;;;;;;;;26.00;57.00;;;;;;5021448;28;19940;-55
2022/06/27 02:21:16;;;;;;;;;;;26.00;57.00;;;;;;5040571;28;19913;-52
2022/06/27 02:23:41;;;;;;;;;;;26.00;57.00;;;;;;5041306;28;19962;-54
2022/06/27 02:26:07;;;;;;;;;;;26.00;57.00;;;;;;5022263;28;19913;-54
2022/06/27 02:28:32;;;;;;;;;;;26.00;57.00;;;;;;5003003;28;19913;-56
2022/06/27 02:30:58;;;;;;;;;;;26.00;57.00;;;;;;5037407;28;19920;-52
2022/06/27 02:33:24;;;;;;;;;;;26.00;57.00;;;;;;5040701;28;19920;-52
2022/06/27 02:35:50;;;;;;;;;;;26.00;57.00;;;;;;5025998;28;19979;-50
2022/06/27 02:38:15;;;;;;;;;;;26.00;57.10;;;;;;5003461;28;19913;-56
2022/06/27 02:40:42;;;;;;;;;;;25.90;57.00;;;;;;5016212;28;19913;-55
2022/06/27 02:43:08;;;;;;;;;;;26.00;57.10;;;;;;5040752;28;20467;-55
2022/06/27 02:45:34;;;;;;;;;;;25.90;57.10;;;;;;5029547;28;19913;-58
2022/06/27 02:47:59;;;;;;;;;;;25.90;57.70;;;;;;5003443;28;19917;-60
2022/06/27 02:50:25;;;;;;;;;;;25.90;57.10;;;;;;5030685;28;19913;-57
2022/06/27 02:52:52;;;;;;;;;;;25.90;57.10;;;;;;5023419;28;20015;-54
2022/06/27 02:55:17;;;;;;;;;;;25.90;57.00;;;;;;5015324;28;19943;-53
2022/06/27 02:58:02;;;;;;;;;;;25.90;57.10;;;;;;5003289;28;19922;-57
2022/06/27 03:00:28;;;;;;;;;;;25.90;57.10;;;;;;5011499;28;19920;-61
2022/06/27 03:02:53;;;;;;;;;;;25.90;57.10;;;;;;5040255;28;19917;-54
2022/06/27 03:05:19;;;;;;;;;;;25.90;57.10;;;;;;5034635;28;19922;-57
2022/06/27 03:07:45;;;;;;;;;;;25.90;57.10;;;;;;5020603;28;20294;-54
2022/06/27 03:10:11;;;;;;;;;;;25.90;57.10;;;;;;5025773;28;19917;-58
2022/06/27 03:12:36;;;;;;;;;;;25.90;57.10;;;;;;5022710;28;19982;-57
2022/06/27 03:15:02;;;;;;;;;;;25.90;57.10;;;;;;5037978;28;20580;-56
2022/06/27 03:17:27;;;;;;;;;;;25.90;57.10;;;;;;5020666;28;19913;-56
2022/06/27 03:19:53;;;;;;;;;;;25.90;57.10;;;;;;5022090;28;19920;-53
2022/06/27 03:22:18;;;;;;;;;;;25.90;57.10;;;;;;5040876;28;20023;-59
2022/06/27 03:24:44;;;;;;;;;;;25.90;57.20;;;;;;5040138;28;19916;-54
2022/06/27 03:27:12;;;;;;;;;;;25.90;57.30;;;;;;5021587;28;20334;-54
2022/06/27 03:29:38;;;;;;;;;;;25.90;57.20;;;;;;5003261;28;19913;-59
2022/06/27 03:32:03;;;;;;;;;;;25.90;57.10;;;;;;5029616;28;19929;-55
2022/06/27 03:34:29;;;;;;;;;;;25.90;57.20;;;;;;5023877;28;19959;-55
2022/06/27 03:36:54;;;;;;;;;;;25.90;57.20;;;;;;5039924;28;20332;-58
2022/06/27 03:39:20;;;;;;;;;;;25.90;57.10;;;;;;5044519;28;19920;-57
2022/06/27 03:41:45;;;;;;;;;;;25.90;57.00;;;;;;5030164;28;20012;-54
2022/06/27 03:44:11;;;;;;;;;;;26.00;57.00;;;;;;5005605;28;19917;-55
2022/06/27 03:46:36;;;;;;;;;;;26.00;57.00;;;;;;5024145;28;19953;-53
2022/06/27 03:51:46;;;;;;;;;;;26.00;56.90;;;;;;5020950;28;20329;-50
2022/06/27 03:54:11;;;;;;;;;;;26.00;56.90;;;;;;5044072;28;19941;-53
2022/06/27 03:56:37;;;;;;;;;;;26.00;56.90;;;;;;5031351;28;20337;-51
2022/06/27 03:59:02;;;;;;;;;;;26.00;56.90;;;;;;5005413;28;19920;-52
2022/06/27 04:01:28;;;;;;;;;;;26.00;57.00;;;;;;5032070;28;19966;-55
2022/06/27 04:03:53;;;;;;;;;;;26.00;57.00;;;;;;5043533;28;19917;-57
2022/06/27 04:06:19;;;;;;;;;;;26.00;57.00;;;;;;5044580;28;19913;-53
2022/06/27 04:08:44;;;;;;;;;;;26.00;57.20;;;;;;5043901;28;19920;-57
2022/06/27 04:11:10;;;;;;;;;;;25.90;57.30;;;;;;5023009;28;20266;-62
2022/06/27 04:13:35;;;;;;;;;;;25.90;57.40;;;;;;5023739;28;20122;-57
2022/06/27 04:16:01;;;;;;;;;;;25.90;57.50;;;;;;5026741;28;19928;-55
2022/06/27 04:18:26;;;;;;;;;;;25.90;58.00;;;;;;5025869;28;19913;-56
2022/06/27 04:20:51;;;;;;;;;;;25.80;58.40;;;;;;5042001;28;20371;-50
2022/06/27 04:23:17;;;;;;;;;;;25.80;59.20;;;;;;5023636;28;19917;-50
2022/06/27 04:25:43;;;;;;;;;;;25.70;59.60;;;;;;5007365;28;19913;-60
2022/06/27 04:28:09;;;;;;;;;;;25.70;59.90;;;;;;5042093;28;19932;-53
2022/06/27 04:30:34;;;;;;;;;;;25.70;60.00;;;;;;5043210;28;19920;-52
2022/06/27 04:33:00;;;;;;;;;;;25.70;60.00;;;;;;5025569;28;19917;-51
2022/06/27 04:35:25;;;;;;;;;;;25.70;60.40;;;;;;5022713;28;19967;-56
2022/06/27 04:37:51;;;;;;;;;;;25.70;61.20;;;;;;5038638;28;20344;-59
2022/06/27 04:40:19;;;;;;;;;;;25.70;60.60;;;;;;5025005;28;19917;-54
2022/06/27 04:42:44;;;;;;;;;;;25.70;60.80;;;;;;5029353;28;19917;-53
2022/06/27 04:45:13;;;;;;;;;;;25.70;60.80;;;;;;5023134;28;19931;-56
2022/06/27 04:47:39;;;;;;;;;;;25.80;61.20;;;;;;5035266;28;20477;-51
2022/06/27 04:50:05;;;;;;;;;;;25.80;61.40;;;;;;5042591;28;20627;-56
2022/06/27 04:52:31;;;;;;;;;;;25.80;61.40;;;;;;5014739;28;19921;-60
2022/06/27 04:54:58;;;;;;;;;;;25.80;61.40;;;;;;5022791;28;19920;-57
2022/06/27 04:57:24;;;;;;;;;;;25.70;61.40;;;;;;5031650;28;20274;-56
2022/06/27 04:59:50;;;;;;;;;;;25.80;61.60;;;;;;5043157;28;19965;-58
2022/06/27 05:02:15;;;;;;;;;;;25.70;61.80;;;;;;5035281;28;20478;-50
2022/06/27 05:04:41;;;;;;;;;;;25.80;61.80;;;;;;5022321;28;19944;-52
2022/06/27 05:07:06;;;;;;;;;;;25.80;61.80;;;;;;5027216;28;19912;-57
2022/06/27 05:09:32;;;;;;;;;;;25.80;61.60;;;;;;5042042;28;20042;-53
2022/06/27 05:11:57;;;;;;;;;;;25.80;61.60;;;;;;5038945;28;19998;-56
2022/06/27 05:14:24;;;;;;;;;;;25.90;61.60;;;;;;5022975;28;19924;-57
2022/06/27 05:16:50;;;;;;;;;;;25.90;61.40;;;;;;5023384;28;19959;-49
2022/06/27 05:19:15;;;;;;;;;;;25.90;61.50;;;;;;5023938;28;20183;-59
2022/06/27 05:21:41;;;;;;;;;;;25.90;61.50;;;;;;5040276;28;19919;-57
2022/06/27 05:24:06;;;;;;;;;;;25.90;61.30;;;;;;5020892;28;19917;-54
2022/06/27 05:26:32;;;;;;;;;;;25.90;61.00;;;;;;5021300;28;19975;-55
2022/06/27 05:28:57;;;;;;;;;;;25.90;61.00;;;;;;5038358;28;19913;-51
2022/06/27 05:31:22;;;;;;;;;;;25.90;60.80;;;;;;5041515;28;19943;-57
2022/06/27 05:33:48;;;;;;;;;;;25.90;60.70;;;;;;5026199;28;19920;-60
2022/06/27 05:36:13;;;;;;;;;;;25.90;60.60;;;;;;5021165;28;19975;-57
2022/06/27 05:38:39;;;;;;;;;;;25.90;60.50;;;;;;5034627;28;20274;-57
2022/06/27 05:41:05;;;;;;;;;;;25.90;60.50;;;;;;5040882;28;20380;-55
2022/06/27 05:43:31;;;;;;;;;;;26.00;59.70;;;;;;5012139;28;20285;-58
2022/06/27 05:45:56;;;;;;;;;;;26.00;59.80;;;;;;5002880;28;19913;-51
2022/06/27 05:48:22;;;;;;;;;;;26.00;59.80;;;;;;5030244;28;19919;-50
2022/06/27 05:50:48;;;;;;;;;;;26.00;59.50;;;;;;5040280;28;20130;-56
2022/06/27 05:53:13;;;;;;;;;;;26.00;59.40;;;;;;5015402;28;19971;-52
2022/06/27 05:55:40;;;;;;;;;;;26.10;59.20;;;;;;5021141;28;20331;-53
2022/06/27 05:58:07;;;;;;;;;;;26.10;59.10;;;;;;5009862;28;19962;-49
2022/06/27 06:00:33;;;;;;;;;;;26.10;59.00;;;;;;5041131;28;19919;-57
2022/06/27 06:02:58;;;;;;;;;;;26.10;58.50;;;;;;5035640;28;19913;-55
2022/06/27 06:05:24;;;;;;;;;;;26.30;58.40;;;;;;5003754;28;19951;-51
2022/06/27 06:07:50;;;;;;;;;;;26.20;58.40;;;;;;5005265;28;19952;-53
2022/06/27 06:10:15;;;;;;;;;;;26.20;58.50;;;;;;5040791;28;19916;-56
2022/06/27 06:12:41;;;;;;;;;;;26.10;58.20;;;;;;5022026;28;19986;-56
2022/06/27 06:15:08;;;;;;;;;;;26.10;58.50;;;;;;5020101;28;19913;-59
2022/06/27 06:17:34;;;;;;;;;;;26.10;58.80;;;;;;5021529;28;19914;-57
2022/06/27 06:20:00;;;;;;;;;;;26.20;58.50;;;;;;5040689;28;20007;-61
2022/06/27 06:22:25;;;;;;;;;;;26.20;59.40;;;;;;5040512;28;19992;-58
2022/06/27 06:24:51;;;;;;;;;;;26.20;58.80;;;;;;5014220;28;19967;-51
2022/06/27 06:27:16;;;;;;;;;;;26.20;58.80;;;;;;5002052;28;20616;-58
2022/06/27 06:29:43;;;;;;;;;;;26.10;59.80;;;;;;5031717;28;19920;-58
2022/06/27 06:32:08;;;;;;;;;;;26.00;60.00;;;;;;5040907;28;19939;-58
2022/06/27 06:34:35;;;;;;;;;;;26.00;59.90;;;;;;5027495;28;19917;-59
2022/06/27 06:37:01;;;;;;;;;;;26.00;60.30;;;;;;5021405;28;19917;-58
2022/06/27 06:39:27;;;;;;;;;;;26.00;59.90;;;;;;5032501;28;19953;-58
2022/06/27 06:41:53;;;;;;;;;;;26.00;59.80;;;;;;5041325;28;20346;-57
2022/06/27 06:44:19;;;;;;;;;;;26.00;59.60;;;;;;5031760;28;20078;-54
2022/06/27 06:46:45;;;;;;;;;;;26.00;59.30;;;;;;5003629;28;20421;-55
2022/06/27 06:49:11;;;;;;;;;;;26.00;59.10;;;;;;5011199;28;19913;-56
2022/06/27 06:51:36;;;;;;;;;;;26.00;59.10;;;;;;5039834;28;19913;-54
2022/06/27 06:54:06;;;;;;;;;;;26.00;58.90;;;;;;5034946;28;19936;-53
2022/06/27 06:56:31;;;;;;;;;;;26.00;58.90;;;;;;5021485;28;19944;-50
2022/06/27 06:58:57;;;;;;;;;;;26.00;58.80;;;;;;5025984;28;20367;-60
2022/06/27 07:01:23;;;;;;;;;;;26.00;59.40;;;;;;5023871;28;19912;-60
2022/06/27 07:03:49;;;;;;;;;;;26.00;59.00;;;;;;5038507;28;19933;-59
2022/06/27 07:06:15;;;;;;;;;;;26.00;58.90;;;;;;5023029;28;19921;-58
2022/06/27 07:08:41;;;;;;;;;;;26.00;58.70;;;;;;5026206;28;20267;-54
2022/06/27 07:11:08;;;;;;;;;;;26.00;58.70;;;;;;5044947;28;20287;-59
2022/06/27 07:13:33;;;;;;;;;;;26.00;58.50;;;;;;5045470;28;20400;-60
2022/06/27 07:15:58;;;;;;;;;;;26.00;58.50;;;;;;5025963;28;20004;-57
2022/06/27 07:18:25;;;;;;;;;;;26.00;58.50;;;;;;5008215;28;20425;-55
2022/06/27 07:20:50;;;;;;;;;;;26.00;58.30;;;;;;5041945;28;19913;-55
2022/06/27 07:23:17;;;;;;;;;;;26.00;58.30;;;;;;5045074;28;20393;-56
2022/06/27 07:25:42;;;;;;;;;;;26.00;58.30;;;;;;5028998;28;19914;-50
2022/06/27 07:28:08;;;;;;;;;;;26.00;58.40;;;;;;5024004;28;19921;-60
2022/06/27 07:30:34;;;;;;;;;;;26.00;58.50;;;;;;5038509;28;19913;-52
2022/06/27 07:33:00;;;;;;;;;;;26.00;58.40;;;;;;5043469;28;20301;-57
2022/06/27 07:35:27;;;;;;;;;;;26.00;58.50;;;;;;5032403;28;19960;-54
2022/06/27 07:37:52;;;;;;;;;;;26.00;58.40;;;;;;5025210;28;19913;-56
2022/06/27 07:40:19;;;;;;;;;;;26.00;58.50;;;;;;5034783;28;20030;-54
2022/06/27 07:42:45;;;;;;;;;;;26.00;58.40;;;;;;5044310;28;19920;-56
2022/06/27 07:45:12;;;;;;;;;;;26.00;58.40;;;;;;5018099;28;19925;-61
2022/06/27 07:47:54;;;;;;;;;;;26.00;58.40;;;;;;5024218;28;19920;-61
2022/06/27 07:50:38;;;;;;;;;;;26.00;58.30;;;;;;5014352;28;20587;-54
2022/06/27 07:53:12;;;;;;;;;;;26.00;58.30;;;;;;5025602;28;19913;-59
2022/06/27 07:55:39;;;;;;;;;;;26.00;58.30;;;;;;5033107;28;19940;-50
2022/06/27 07:58:06;;;;;;;;;;;26.00;58.20;;;;;;5024303;28;19967;-59
2022/06/27 08:00:31;;;;;;;;;;;26.00;58.20;;;;;;5033244;28;20007;-55
2022/06/27 08:02:57;;;;;;;;;;;26.00;58.20;;;;;;5043458;28;20008;-57
2022/06/27 08:05:22;;;;;;;;;;;26.00;58.20;;;;;;5037218;28;19917;-57
2022/06/27 08:07:49;;;;;;;;;;;26.00;58.20;;;;;;5022778;28;20398;-55
2022/06/27 08:10:15;;;;;;;;;;;26.00;58.20;;;;;;5011452;28;19913;-61
2022/06/27 08:12:40;;;;;;;;;;;26.00;58.10;;;;;;5043073;28;19916;-59
2022/06/27 08:15:06;;;;;;;;;;;26.00;58.10;;;;;;5039065;28;19914;-54
2022/06/27 08:17:32;;;;;;;;;;;26.00;58.10;;;;;;5022884;28;19925;-56
2022/06/27 08:19:58;;;;;;;;;;;26.00;58.00;;;;;;5025464;28;20100;-55
2022/06/27 08:22:25;;;;;;;;;;;26.00;58.00;;;;;;5043692;28;19913;-57
2022/06/27 08:24:51;;;;;;;;;;;26.00;58.00;;;;;;5043605;28;19924;-55
2022/06/27 08:27:16;;;;;;;;;;;26.00;58.00;;;;;;5023951;28;20234;-57
2022/06/27 08:29:43;;;;;;;;;;;26.00;57.90;;;;;;5023358;28;19913;-57
2022/06/27 08:32:09;;;;;;;;;;;26.00;57.80;;;;;;5043228;28;20294;-58
2022/06/27 08:34:35;;;;;;;;;;;26.00;57.80;;;;;;5046900;28;19913;-56
2022/06/27 08:37:01;;;;;;;;;;;26.00;57.80;;;;;;5028553;28;19928;-55
2022/06/27 08:39:28;;;;;;;;;;;26.00;57.80;;;;;;5024057;28;19914;-51
2022/06/27 08:41:53;;;;;;;;;;;26.00;57.70;;;;;;5038033;28;19979;-53
2022/06/27 08:44:19;;;;;;;;;;;26.00;57.70;;;;;;5042809;28;20412;-55
2022/06/27 08:46:47;;;;;;;;;;;26.00;57.60;;;;;;5012787;28;19913;-53
2022/06/27 08:49:14;;;;;;;;;;;26.00;57.60;;;;;;5023131;28;19944;-56
2022/06/27 08:51:39;;;;;;;;;;;26.00;57.60;;;;;;5016843;28;19913;-57
2022/06/27 08:54:05;;;;;;;;;;;26.00;57.60;;;;;;5043243;28;19912;-57
2022/06/27 08:56:31;;;;;;;;;;;26.00;57.50;;;;;;5016062;28;19924;-60
2022/06/27 08:58:58;;;;;;;;;;;26.00;57.60;;;;;;5023395;28;20279;-58
2022/06/27 09:01:23;;;;;;;;;;;26.00;57.50;;;;;;5031693;28;19920;-59
2022/06/27 09:04:06;;;;;;;;;;;26.00;57.60;;;;;;5042876;28;19916;-51
2022/06/27 09:06:38;;;;;;;;;;;26.00;57.50;;;;;;5034436;28;19967;-52
2022/06/27 09:09:08;;;;;;;;;;;26.00;57.50;;;;;;5023016;28;19952;-57
2022/06/27 09:11:37;;;;;;;;;;;26.00;57.40;;;;;;5030388;28;19927;-53
2022/06/27 09:14:03;;;;;;;;;;;26.10;57.50;;;;;;5042376;28;19913;-57
2022/06/27 09:16:29;;;;;;;;;;;26.00;57.40;;;;;;5017820;28;19970;-56
2022/06/27 09:18:55;;;;;;;;;;;26.00;57.40;;;;;;5023177;28;19917;-55
2022/06/27 09:21:20;;;;;;;;;;;26.00;57.40;;;;;;5026909;28;19997;-50
2022/06/27 09:23:49;;;;;;;;;;;26.00;57.40;;;;;;5042232;28;19917;-52
2022/06/27 09:26:15;;;;;;;;;;;26.00;57.40;;;;;;5029937;28;19948;-50
2022/06/27 09:28:53;;;;;;;;;;;26.00;57.40;;;;;;5042124;28;19951;-54
2022/06/27 09:31:30;;;;;;;;;;;26.00;57.40;;;;;;5039204;28;19913;-55
2022/06/27 09:34:14;;;;;;;;;;;26.00;57.40;;;;;;4995561;28;19917;-59
2022/06/27 09:36:41;;;;;;;;;;;26.00;57.30;;;;;;5027802;28;19917;-54
2022/06/27 09:39:08;;;;;;;;;;;26.00;57.30;;;;;;5042196;28;19916;-52
2022/06/27 09:41:34;;;;;;;;;;;26.00;57.30;;;;;;5037502;28;19936;-56
2022/06/27 09:44:04;;;;;;;;;;;26.00;57.30;;;;;;5022241;28;20375;-50
2022/06/27 09:46:34;;;;;;;;;;;26.10;57.30;;;;;;5025052;28;20573;-51
2022/06/27 09:48:59;;;;;;;;;;;26.00;57.20;;;;;;5042362;28;20028;-54
2022/06/27 09:51:25;;;;;;;;;;;26.00;57.20;;;;;;5023315;28;19948;-56
2022/06/27 09:53:50;;;;;;;;;;;26.00;57.20;;;;;;4987400;28;19914;-53
2022/06/27 09:56:18;;;;;;;;;;;26.10;57.30;;;;;;5022328;28;20709;-53
2022/06/27 09:58:44;;;;;;;;;;;26.10;57.30;;;;;;5041375;28;20446;-55
2022/06/27 10:01:10;;;;;;;;;;;26.10;57.20;;;;;;5024270;28;20004;-53
2022/06/27 10:03:36;;;;;;;;;;;26.10;57.20;;;;;;5023646;28;20329;-56
2022/06/27 10:06:01;;;;;;;;;;;26.00;57.00;;;;;;5021969;28;19945;-54
2022/06/27 10:08:27;;;;;;;;;;;26.10;57.20;;;;;;5022246;28;20362;-60
2022/06/27 10:11:02;;;;;;;;;;;26.10;57.10;;;;;;5021220;28;20046;-57
2022/06/27 10:13:28;;;;;;;;;;;26.10;57.10;;;;;;5037384;28;19962;-53
2022/06/27 10:15:55;;;;;;;;;;;26.10;57.10;;;;;;5023642;28;19948;-57
2022/06/27 10:18:20;;;;;;;;;;;26.10;57.10;;;;;;5010290;28;19971;-55
2022/06/27 10:20:48;;;;;;;;;;;26.10;57.10;;;;;;5003531;28;19921;-56
2022/06/27 10:23:13;;;;;;;;;;;26.10;57.10;;;;;;5034203;28;19989;-51
2022/06/27 10:25:40;;;;;;;;;;;26.10;57.10;;;;;;5041606;28;20574;-56
2022/06/27 10:28:09;;;;;;;;;;;26.10;57.10;;;;;;5031331;28;19913;-57
2022/06/27 10:30:38;;;;;;;;;;;26.10;57.10;;;;;;5021278;28;19913;-57
2022/06/27 10:33:22;;;;;;;;;;;26.10;57.10;;;;;;5030497;28;19959;-55
2022/06/27 10:35:53;;;;;;;;;;;26.10;57.00;;;;;;5040169;28;20019;-56
2022/06/27 10:38:22;;;;;;;;;;;26.10;57.10;;;;;;5029875;28;20612;-60
2022/06/27 10:40:48;;;;;;;;;;;26.10;57.00;;;;;;5023323;28;19959;-55
2022/06/27 10:43:32;;;;;;;;;;;26.10;56.90;;;;;;5016931;28;19921;-58
2022/06/27 10:45:57;;;;;;;;;;;26.10;56.90;;;;;;5046019;28;20341;-56
2022/06/27 10:48:32;;;;;;;;;;;26.10;57.00;;;;;;5035722;28;19967;-54
2022/06/27 10:50:57;;;;;;;;;;;26.10;57.00;;;;;;5007506;28;19967;-60
2022/06/27 10:53:24;;;;;;;;;;;26.10;57.00;;;;;;5016487;28;19913;-60
2022/06/27 10:55:49;;;;;;;;;;;26.10;57.00;;;;;;5045383;28;20011;-57
2022/06/27 10:58:27;;;;;;;;;;;26.10;57.00;;;;;;5038382;28;19913;-56
2022/06/27 11:00:58;;;;;;;;;;;26.10;56.90;;;;;;5025347;28;20429;-54
2022/06/27 11:03:26;;;;;;;;;;;26.10;56.90;;;;;;5015851;28;19928;-57
2022/06/27 11:05:52;;;;;;;;;;;26.10;56.90;;;;;;5045665;28;19943;-56
2022/06/27 11:08:18;;;;;;;;;;;26.20;57.00;;;;;;5038721;28;20457;-50
2022/06/27 11:10:44;;;;;;;;;;;26.20;57.00;;;;;;5024810;28;19920;-53
2022/06/27 11:13:09;;;;;;;;;;;26.10;56.90;;;;;;5011952;28;20290;-53
2022/06/27 11:15:35;;;;;;;;;;;26.20;56.90;;;;;;5044873;28;19917;-57
2022/06/27 11:18:06;;;;;;;;;;;26.20;56.90;;;;;;5024926;28;19920;-57
2022/06/27 11:20:31;;;;;;;;;;;26.20;56.90;;;;;;5024551;28;19924;-54
2022/06/27 11:22:58;;;;;;;;;;;26.20;56.80;;;;;;5026431;28;19917;-59
2022/06/27 11:25:24;;;;;;;;;;;26.20;56.80;;;;;;5044534;28;19917;-57
2022/06/27 11:27:52;;;;;;;;;;;26.20;56.80;;;;;;5044566;28;19921;-54
2022/06/27 11:33:11;;;;;;;;;;;26.20;56.80;;;;;;5008849;28;19924;-59
2022/06/27 11:35:37;;;;;;;;;;;26.20;56.70;;;;;;5044601;28;19913;-51
2022/06/27 11:38:05;;;;;;;;;;;26.20;56.80;;;;;;5027139;28;19920;-52
2022/06/27 11:40:30;;;;;;;;;;;26.20;56.70;;;;;;5023870;28;19924;-55
2022/06/27 11:42:56;;;;;;;;;;;26.20;56.70;;;;;;5024801;28;19914;-59
2022/06/27 11:45:21;;;;;;;;;;;26.20;56.70;;;;;;5042961;28;19923;-61
2022/06/27 11:47:47;;;;;;;;;;;26.20;56.70;;;;;;5026717;28;19955;-58
2022/06/27 11:50:15;;;;;;;;;;;26.20;56.70;;;;;;5027863;28;19913;-57
2022/06/27 11:52:45;;;;;;;;;;;26.20;56.60;;;;;;4996112;28;20075;-55
2022/06/27 11:55:11;;;;;;;;;;;26.20;56.70;;;;;;5021551;28;20516;-58
2022/06/27 11:57:37;;;;;;;;;;;26.20;56.70;;;;;;5044431;28;19917;-56
2022/06/27 12:00:08;;;;;;;;;;;26.20;56.70;;;;;;5030171;28;19913;-59
2022/06/27 12:02:35;;;;;;;;;;;26.20;56.70;;;;;;5024004;28;20389;-56
2022/06/27 12:05:11;;;;;;;;;;;26.20;56.70;;;;;;5036953;28;20003;-59
2022/06/27 12:07:56;;;;;;;;;;;26.20;56.70;;;;;;5044509;28;19920;-55
2022/06/27 12:10:34;;;;;;;;;;;26.20;56.70;;;;;;5029171;28;20034;-52
2022/06/27 12:12:59;;;;;;;;;;;26.20;56.60;;;;;;5023402;28;19913;-61
2022/06/27 12:15:26;;;;;;;;;;;26.20;56.60;;;;;;5038358;28;20305;-53
2022/06/27 12:17:58;;;;;;;;;;;26.20;56.60;;;;;;5044046;28;19919;-56
2022/06/27 12:20:23;;;;;;;;;;;26.20;56.60;;;;;;5030384;28;19914;-53
2022/06/27 12:22:50;;;;;;;;;;;26.20;56.60;;;;;;5005761;28;19980;-60
2022/06/27 12:25:19;;;;;;;;;;;26.20;56.60;;;;;;5035526;28;19923;-56
2022/06/27 12:27:44;;;;;;;;;;;26.20;56.60;;;;;;5043564;28;19913;-55
2022/06/27 12:30:10;;;;;;;;;;;26.20;56.60;;;;;;5033311;28;19960;-57
2022/06/27 12:32:36;;;;;;;;;;;26.30;56.70;;;;;;5023630;28;19917;-55
2022/06/27 12:35:01;;;;;;;;;;;26.20;56.60;;;;;;5032142;28;19935;-57
2022/06/27 12:37:27;;;;;;;;;;;26.30;56.70;;;;;;5045283;28;20413;-57
2022/06/27 12:39:52;;;;;;;;;;;26.30;56.70;;;;;;5035246;28;19917;-57
2022/06/27 12:42:18;;;;;;;;;;;26.30;56.70;;;;;;5023731;28;19913;-56
2022/06/27 12:44:43;;;;;;;;;;;26.30;56.70;;;;;;5031562;28;19916;-56
2022/06/27 12:47:09;;;;;;;;;;;26.30;56.70;;;;;;5046773;28;19924;-59
2022/06/27 12:49:34;;;;;;;;;;;26.30;56.70;;;;;;5049375;28;19917;-60
2022/06/27 12:52:00;;;;;;;;;;;26.30;56.70;;;;;;5044245;28;19917;-60
2022/06/27 12:54:25;;;;;;;;;;;26.30;56.70;;;;;;5024685;28;19920;-55
2022/06/27 12:56:51;;;;;;;;;;;26.30;56.70;;;;;;5023245;28;19927;-54
2022/06/27 12:59:16;;;;;;;;;;;26.30;56.70;;;;;;5023289;28;19924;-57
2022/06/27 13:01:42;;;;;;;;;;;26.30;56.70;;;;;;5042132;28;19916;-57
2022/06/27 13:04:07;;;;;;;;;;;26.30;56.70;;;;;;5041889;28;20387;-61
2022/06/27 13:06:33;;;;;;;;;;;26.30;56.70;;;;;;5026597;28;20356;-61
2022/06/27 13:08:58;;;;;;;;;;;26.40;56.70;;;;;;5023798;28;19917;-56
2022/06/27 13:11:24;;;;;;;;;;;26.40;56.70;;;;;;5018792;28;19916;-60
2022/06/27 13:13:49;;;;;;;;;;;26.40;56.80;;;;;;5043086;28;20488;-53
2022/06/27 13:16:14;;;;;;;;;;;26.40;56.70;;;;;;5029504;28;19920;-53
2022/06/27 13:18:40;;;;;;;;;;;26.40;56.70;;;;;;5021977;28;19917;-57
2022/06/27 13:21:05;;;;;;;;;;;26.40;56.70;;;;;;5015586;28;19940;-54
2022/06/27 13:23:31;;;;;;;;;;;26.40;56.70;;;;;;5042348;28;20416;-56
2022/06/27 13:25:56;;;;;;;;;;;26.40;56.80;;;;;;5033101;28;19913;-58
2022/06/27 13:28:22;;;;;;;;;;;26.40;56.70;;;;;;5022350;28;19921;-51
2022/06/27 13:30:47;;;;;;;;;;;26.40;56.70;;;;;;5029144;28;19960;-60
2022/06/27 13:33:13;;;;;;;;;;;26.40;56.80;;;;;;5042335;28;20322;-59
2022/06/27 13:35:38;;;;;;;;;;;26.50;56.80;;;;;;5037504;28;19924;-61
2022/06/27 13:38:04;;;;;;;;;;;26.40;56.70;;;;;;5022482;28;20489;-61
2022/06/27 13:40:29;;;;;;;;;;;26.50;56.80;;;;;;5025933;28;19920;-55
2022/06/27 13:42:55;;;;;;;;;;;26.50;56.80;;;;;;5041577;28;19919;-58
2022/06/27 13:45:20;;;;;;;;;;;26.50;56.80;;;;;;5040228;28;19928;-55
2022/06/27 13:47:46;;;;;;;;;;;26.50;56.80;;;;;;5021701;28;19913;-56
2022/06/27 13:50:12;;;;;;;;;;;26.50;56.80;;;;;;5022278;28;19917;-58
2022/06/27 13:52:38;;;;;;;;;;;26.50;56.80;;;;;;5040683;28;19913;-59
2022/06/27 13:55:03;;;;;;;;;;;26.50;56.80;;;;;;5051625;22;19920;-58
2022/06/27 13:57:29;;;;;;;;;;;26.50;56.80;;;;;;5023606;28;20349;-58
2022/06/27 13:59:54;;;;;;;;;;;26.50;56.80;;;;;;5047784;28;19923;-59
2022/06/27 14:02:20;;;;;;;;;;;26.50;57.10;;;;;;5021670;28;20378;-59
2022/06/27 14:04:45;;;;;;;;;;;26.50;56.70;;;;;;5021884;28;20001;-59
2022/06/27 14:09:55;;;;;;;;;;;26.50;56.70;;;;;;5042454;28;20062;-59
2022/06/27 14:12:20;;;;;;;;;;;26.50;56.80;;;;;;5006100;28;20278;-58
2022/06/27 14:14:46;;;;;;;;;;;26.50;56.70;;;;;;5022228;28;19921;-60
2022/06/27 14:17:11;;;;;;;;;;;26.50;56.80;;;;;;5034495;28;19939;-58
2022/06/27 14:19:37;;;;;;;;;;;26.50;56.70;;;;;;5019219;28;19913;-58